sensor_id;sensor_type;location;lat;lon;timestamp;temperature;humidity
52397;DHT22;38322;53.108;6.308;2024-01-06T06:02:01;1.10;99.90
52397;DHT22;38322;53.108;6.308;2024-01-06T06:04:27;1.10;99.90
52397;DHT22;38322;53.108;6.308;2024-01-06T06:06:52;1.10;99.90
52397;DHT22;38322;53.108;6.308;2024-01-06T06:09:19;1.10;99.90
52397;DHT22;38322;53.108;6.308;2024-01-06T06:11:46;1.10;99.90
52397;DHT22;38322;53.108;6.308;2024-01-06T06:14:12;1.10;99.90
52397;DHT22;38322;53.108;6.308;2024-01-06T06:16:38;1.10;99.90
52397;DHT22;38322;53.108;6.308;2024-01-06T06:19:04;1.10;99.90
52397;DHT22;38322;53.108;6.308;2024-01-06T06:21:30;1.10;99.90
52397;DHT22;38322;53.108;6.308;2024-01-06T06:23:56;1.10;99.90
52397;DHT22;38322;53.108;6.308;2024-01-06T06:26:22;1.10;99.90
52397;DHT22;38322;53.108;6.308;2024-01-06T06:28:48;1.10;99.90
52397;DHT22;38322;53.108;6.308;2024-01-06T06:31:13;1.10;99.90
52397;DHT22;38322;53.108;6.308;2024-01-06T06:33:39;1.10;99.90
52397;DHT22;38322;53.108;6.308;2024-01-06T06:36:05;1.10;99.90
52397;DHT22;38322;53.108;6.308;2024-01-06T06:38:31;1.10;99.90
52397;DHT22;38322;53.108;6.308;2024-01-06T06:40:57;1.10;99.90
52397;DHT22;38322;53.108;6.308;2024-01-06T06:43:23;1.10;99.90
52397;DHT22;38322;53.108;6.308;2024-01-06T06:45:49;1.10;99.90
52397;DHT22;38322;53.108;6.308;2024-01-06T06:48:15;1.10;99.90
52397;DHT22;38322;53.108;6.308;2024-01-06T06:50:41;1.10;99.90
52397;DHT22;38322;53.108;6.308;2024-01-06T06:53:07;1.10;99.90
52397;DHT22;38322;53.108;6.308;2024-01-06T06:55:33;1.10;99.90
52397;DHT22;38322;53.108;6.308;2024-01-06T06:57:59;1.10;99.90
52397;DHT22;38322;53.108;6.308;2024-01-06T07:00:25;1.10;99.90
52397;DHT22;38322;53.108;6.308;2024-01-06T07:02:51;1.10;99.90
52397;DHT22;38322;53.108;6.308;2024-01-06T07:05:17;1.10;99.90
52397;DHT22;38322;53.108;6.308;2024-01-06T07:07:43;1.10;99.90
52397;DHT22;38322;53.108;6.308;2024-01-06T07:10:12;1.10;99.90
52397;DHT22;38322;53.108;6.308;2024-01-06T07:12:38;1.10;99.90
52397;DHT22;38322;53.108;6.308;2024-01-06T07:15:05;1.10;99.90
52397;DHT22;38322;53.108;6.308;2024-01-06T07:17:31;1.10;99.90
52397;DHT22;38322;53.108;6.308;2024-01-06T07:19:56;1.00;99.90
52397;DHT22;38322;53.108;6.308;2024-01-06T07:22:22;1.10;99.90
52397;DHT22;38322;53.108;6.308;2024-01-06T07:24:48;1.10;99.90
52397;DHT22;38322;53.108;6.308;2024-01-06T07:27:14;1.10;99.90
52397;DHT22;38322;53.108;6.308;2024-01-06T07:29:40;1.00;99.90
52397;DHT22;38322;53.108;6.308;2024-01-06T07:32:06;1.10;99.90
52397;DHT22;38322;53.108;6.308;2024-01-06T07:34:32;1.00;99.90
52397;DHT22;38322;53.108;6.308;2024-01-06T07:36:58;1.00;99.90
52397;DHT22;38322;53.108;6.308;2024-01-06T07:39:24;1.00;99.90
52397;DHT22;38322;53.108;6.308;2024-01-06T07:41:50;1.00;99.90
52397;DHT22;38322;53.108;6.308;2024-01-06T07:44:16;1.00;99.90
52397;DHT22;38322;53.108;6.308;2024-01-06T07:46:48;1.00;99.90
52397;DHT22;38322;53.108;6.308;2024-01-06T07:49:14;1.10;99.90
52397;DHT22;38322;53.108;6.308;2024-01-06T07:51:41;1.00;99.90
52397;DHT22;38322;53.108;6.308;2024-01-06T07:54:07;1.10;99.90
52397;DHT22;38322;53.108;6.308;2024-01-06T07:56:35;1.10;99.90
52397;DHT22;38322;53.108;6.308;2024-01-06T07:59:02;1.00;99.90
52397;DHT22;38322;53.108;6.308;2024-01-06T08:01:27;1.10;99.90
52397;DHT22;38322;53.108;6.308;2024-01-06T08:03:53;1.10;99.90
52397;DHT22;38322;53.108;6.308;2024-01-06T08:06:19;1.10;99.90
52397;DHT22;38322;53.108;6.308;2024-01-06T08:08:45;1.10;99.90
52397;DHT22;38322;53.108;6.308;2024-01-06T08:11:12;1.10;99.90
52397;DHT22;38322;53.108;6.308;2024-01-06T08:13:38;1.10;99.90
52397;DHT22;38322;53.108;6.308;2024-01-06T08:16:05;1.20;99.90
52397;DHT22;38322;53.108;6.308;2024-01-06T08:18:31;1.20;99.90
52397;DHT22;38322;53.108;6.308;2024-01-06T08:20:57;1.20;99.90
52397;DHT22;38322;53.108;6.308;2024-01-06T08:23:23;1.20;99.90
52397;DHT22;38322;53.108;6.308;2024-01-06T08:25:48;1.20;99.90
52397;DHT22;38322;53.108;6.308;2024-01-06T08:28:14;1.20;99.90
52397;DHT22;38322;53.108;6.308;2024-01-06T08:30:40;1.20;99.90
52397;DHT22;38322;53.108;6.308;2024-01-06T08:33:06;1.20;99.90
52397;DHT22;38322;53.108;6.308;2024-01-06T08:35:32;1.20;99.90
52397;DHT22;38322;53.108;6.308;2024-01-06T08:37:58;1.30;99.90
52397;DHT22;38322;53.108;6.308;2024-01-06T08:40:24;1.20;99.90
52397;DHT22;38322;53.108;6.308;2024-01-06T08:42:50;1.30;99.90
52397;DHT22;38322;53.108;6.308;2024-01-06T08:45:15;1.30;99.90
52397;DHT22;38322;53.108;6.308;2024-01-06T08:47:41;1.30;99.90
52397;DHT22;38322;53.108;6.308;2024-01-06T08:50:07;1.30;99.90
52397;DHT22;38322;53.108;6.308;2024-01-06T08:52:33;1.30;99.90
52397;DHT22;38322;53.108;6.308;2024-01-06T08:54:59;1.30;99.90
52397;DHT22;38322;53.108;6.308;2024-01-06T08:57:25;1.30;99.90
52397;DHT22;38322;53.108;6.308;2024-01-06T08:59:51;1.60;99.90
52397;DHT22;38322;53.108;6.308;2024-01-06T09:02:16;1.30;99.90
52397;DHT22;38322;53.108;6.308;2024-01-06T09:04:42;1.30;99.90
52397;DHT22;38322;53.108;6.308;2024-01-06T09:07:08;1.30;99.90
52397;DHT22;38322;53.108;6.308;2024-01-06T09:09:35;1.30;99.90
52397;DHT22;38322;53.108;6.308;2024-01-06T09:12:01;1.40;99.90
52397;DHT22;38322;53.108;6.308;2024-01-06T09:14:27;1.40;99.90
52397;DHT22;38322;53.108;6.308;2024-01-06T09:16:52;1.40;99.90
52397;DHT22;38322;53.108;6.308;2024-01-06T09:19:18;1.50;99.90
52397;DHT22;38322;53.108;6.308;2024-01-06T09:21:44;1.40;99.90
52397;DHT22;38322;53.108;6.308;2024-01-06T09:24:10;1.40;99.90
52397;DHT22;38322;53.108;6.308;2024-01-06T09:26:36;1.50;99.90
52397;DHT22;38322;53.108;6.308;2024-01-06T09:29:02;1.50;99.90
52397;DHT22;38322;53.108;6.308;2024-01-06T09:31:29;1.50;99.90
52397;DHT22;38322;53.108;6.308;2024-01-06T09:33:55;1.50;99.90
52397;DHT22;38322;53.108;6.308;2024-01-06T09:36:21;1.50;99.90
52397;DHT22;38322;53.108;6.308;2024-01-06T09:38:47;1.50;99.90
52397;DHT22;38322;53.108;6.308;2024-01-06T09:41:13;1.50;99.90
52397;DHT22;38322;53.108;6.308;2024-01-06T09:43:39;1.50;99.90
52397;DHT22;38322;53.108;6.308;2024-01-06T09:46:10;1.50;99.90
52397;DHT22;38322;53.108;6.308;2024-01-06T09:48:40;1.60;99.90
52397;DHT22;38322;53.108;6.308;2024-01-06T09:51:10;1.60;99.90
52397;DHT22;38322;53.108;6.308;2024-01-06T09:53:42;1.60;99.90
52397;DHT22;38322;53.108;6.308;2024-01-06T09:56:09;1.60;99.90
52397;DHT22;38322;53.108;6.308;2024-01-06T09:58:35;1.60;99.90
52397;DHT22;38322;53.108;6.308;2024-01-06T10:01:03;1.70;99.90
52397;DHT22;38322;53.108;6.308;2024-01-06T10:03:30;1.70;99.90
52397;DHT22;38322;53.108;6.308;2024-01-06T10:05:55;1.70;99.90
52397;DHT22;38322;53.108;6.308;2024-01-06T10:08:26;1.80;99.90
52397;DHT22;38322;53.108;6.308;2024-01-06T10:10:52;1.80;99.90
52397;DHT22;38322;53.108;6.308;2024-01-06T10:13:18;1.80;99.90
52397;DHT22;38322;53.108;6.308;2024-01-06T10:15:44;1.80;99.90
52397;DHT22;38322;53.108;6.308;2024-01-06T10:18:09;1.80;99.90
52397;DHT22;38322;53.108;6.308;2024-01-06T10:20:35;1.80;99.90
52397;DHT22;38322;53.108;6.308;2024-01-06T10:23:05;1.80;99.90
52397;DHT22;38322;53.108;6.308;2024-01-06T10:25:32;1.90;99.90
52397;DHT22;38322;53.108;6.308;2024-01-06T10:28:00;1.90;99.90
52397;DHT22;38322;53.108;6.308;2024-01-06T10:30:27;1.90;99.90
52397;DHT22;38322;53.108;6.308;2024-01-06T10:32:53;1.90;99.90
52397;DHT22;38322;53.108;6.308;2024-01-06T10:35:19;1.90;99.90
52397;DHT22;38322;53.108;6.308;2024-01-06T10:37:45;2.00;99.90
52397;DHT22;38322;53.108;6.308;2024-01-06T10:40:14;2.00;99.90
52397;DHT22;38322;53.108;6.308;2024-01-06T10:42:42;2.10;99.90
52397;DHT22;38322;53.108;6.308;2024-01-06T10:45:10;2.10;99.90
52397;DHT22;38322;53.108;6.308;2024-01-06T10:47:38;2.10;99.90
52397;DHT22;38322;53.108;6.308;2024-01-06T10:50:05;2.10;99.90
52397;DHT22;38322;53.108;6.308;2024-01-06T10:52:31;2.10;99.90
52397;DHT22;38322;53.108;6.308;2024-01-06T10:54:58;2.20;99.90
52397;DHT22;38322;53.108;6.308;2024-01-06T10:57:24;2.20;99.90
52397;DHT22;38322;53.108;6.308;2024-01-06T10:59:51;2.20;99.90
52397;DHT22;38322;53.108;6.308;2024-01-06T11:02:18;2.20;99.90
52397;DHT22;38322;53.108;6.308;2024-01-06T11:04:46;2.20;99.90
52397;DHT22;38322;53.108;6.308;2024-01-06T11:07:15;2.30;99.90
52397;DHT22;38322;53.108;6.308;2024-01-06T11:09:58;2.30;99.90
52397;DHT22;38322;53.108;6.308;2024-01-06T11:12:25;2.30;99.90
52397;DHT22;38322;53.108;6.308;2024-01-06T11:14:52;2.30;99.90
52397;DHT22;38322;53.108;6.308;2024-01-06T11:17:54;2.30;99.90
52397;DHT22;38322;53.108;6.308;2024-01-06T11:20:22;2.30;99.90
52397;DHT22;38322;53.108;6.308;2024-01-06T11:22:49;2.30;99.90
52397;DHT22;38322;53.108;6.308;2024-01-06T11:25:17;2.30;99.90
52397;DHT22;38322;53.108;6.308;2024-01-06T11:27:45;2.30;99.90
52397;DHT22;38322;53.108;6.308;2024-01-06T11:30:25;2.30;99.90
52397;DHT22;38322;53.108;6.308;2024-01-06T11:32:52;2.30;99.90
52397;DHT22;38322;53.108;6.308;2024-01-06T11:35:20;2.30;99.90
52397;DHT22;38322;53.108;6.308;2024-01-06T11:40:16;2.30;99.90
52397;DHT22;38322;53.108;6.308;2024-01-06T11:42:49;2.30;99.90
52397;DHT22;38322;53.108;6.308;2024-01-06T11:45:21;2.30;99.90
52397;DHT22;38322;53.108;6.308;2024-01-06T11:47:48;2.30;99.90
52397;DHT22;38322;53.108;6.308;2024-01-06T11:50:15;2.20;99.90
52397;DHT22;38322;53.108;6.308;2024-01-06T11:52:41;2.20;99.90
52397;DHT22;38322;53.108;6.308;2024-01-06T11:55:07;2.20;99.90
52397;DHT22;38322;53.108;6.308;2024-01-06T11:57:35;2.20;99.90
52397;DHT22;38322;53.108;6.308;2024-01-06T12:00:00;2.20;99.90
52397;DHT22;38322;53.108;6.308;2024-01-06T12:02:27;2.20;99.90
52397;DHT22;38322;53.108;6.308;2024-01-06T12:04:54;2.20;99.90
52397;DHT22;38322;53.108;6.308;2024-01-06T12:07:21;2.10;99.90
52397;DHT22;38322;53.108;6.308;2024-01-06T12:09:49;2.00;99.90
52397;DHT22;38322;53.108;6.308;2024-01-06T12:12:16;2.00;99.90
52397;DHT22;38322;53.108;6.308;2024-01-06T12:14:42;2.00;99.90
52397;DHT22;38322;53.108;6.308;2024-01-06T12:17:09;1.90;99.90
52397;DHT22;38322;53.108;6.308;2024-01-06T12:19:35;2.00;99.90
52397;DHT22;38322;53.108;6.308;2024-01-06T12:22:01;1.90;99.90
52397;DHT22;38322;53.108;6.308;2024-01-06T12:24:28;2.00;99.90
52397;DHT22;38322;53.108;6.308;2024-01-06T12:26:57;2.00;99.90
52397;DHT22;38322;53.108;6.308;2024-01-06T12:29:26;2.00;99.90
52397;DHT22;38322;53.108;6.308;2024-01-06T12:31:55;2.00;99.90
52397;DHT22;38322;53.108;6.308;2024-01-06T12:34:21;1.90;99.90
52397;DHT22;38322;53.108;6.308;2024-01-06T12:36:47;1.90;99.90
52397;DHT22;38322;53.108;6.308;2024-01-06T12:39:13;1.80;99.90
52397;DHT22;38322;53.108;6.308;2024-01-06T12:41:41;1.80;99.90
52397;DHT22;38322;53.108;6.308;2024-01-06T12:44:07;1.80;99.90
52397;DHT22;38322;53.108;6.308;2024-01-06T12:46:33;1.80;99.90
52397;DHT22;38322;53.108;6.308;2024-01-06T12:48:59;2.00;99.90
52397;DHT22;38322;53.108;6.308;2024-01-06T12:51:25;1.70;99.90
52397;DHT22;38322;53.108;6.308;2024-01-06T12:53:51;1.70;99.90
52397;DHT22;38322;53.108;6.308;2024-01-06T12:56:17;1.60;99.90
52397;DHT22;38322;53.108;6.308;2024-01-06T12:58:43;1.60;99.90
52397;DHT22;38322;53.108;6.308;2024-01-06T13:01:10;1.60;99.90
52397;DHT22;38322;53.108;6.308;2024-01-06T13:03:36;1.50;99.90
52397;DHT22;38322;53.108;6.308;2024-01-06T13:06:02;1.50;99.90
52397;DHT22;38322;53.108;6.308;2024-01-06T13:08:28;1.50;99.90
52397;DHT22;38322;53.108;6.308;2024-01-06T13:10:56;1.50;99.90
52397;DHT22;38322;53.108;6.308;2024-01-06T13:13:22;1.50;99.90
52397;DHT22;38322;53.108;6.308;2024-01-06T13:15:48;1.50;99.90
52397;DHT22;38322;53.108;6.308;2024-01-06T13:18:14;1.50;99.90
52397;DHT22;38322;53.108;6.308;2024-01-06T13:20:42;1.50;99.90
52397;DHT22;38322;53.108;6.308;2024-01-06T13:23:09;1.50;99.90
52397;DHT22;38322;53.108;6.308;2024-01-06T13:25:37;1.50;99.90
52397;DHT22;38322;53.108;6.308;2024-01-06T13:28:06;1.40;99.90
52397;DHT22;38322;53.108;6.308;2024-01-06T13:30:32;1.40;99.90
52397;DHT22;38322;53.108;6.308;2024-01-06T13:32:58;1.40;99.90
52397;DHT22;38322;53.108;6.308;2024-01-06T13:35:25;1.40;99.90
52397;DHT22;38322;53.108;6.308;2024-01-06T13:37:52;1.40;99.90
52397;DHT22;38322;53.108;6.308;2024-01-06T13:40:18;1.40;99.90
52397;DHT22;38322;53.108;6.308;2024-01-06T13:42:47;1.40;99.90
52397;DHT22;38322;53.108;6.308;2024-01-06T13:45:13;1.40;99.90
52397;DHT22;38322;53.108;6.308;2024-01-06T13:47:39;1.40;99.90
52397;DHT22;38322;53.108;6.308;2024-01-06T13:50:11;1.40;99.90
52397;DHT22;38322;53.108;6.308;2024-01-06T13:52:38;1.40;99.90
52397;DHT22;38322;53.108;6.308;2024-01-06T13:55:05;1.40;99.90
52397;DHT22;38322;53.108;6.308;2024-01-06T13:57:32;1.30;99.90
52397;DHT22;38322;53.108;6.308;2024-01-06T13:59:58;1.30;99.90
52397;DHT22;38322;53.108;6.308;2024-01-06T14:02:24;1.30;99.90
52397;DHT22;38322;53.108;6.308;2024-01-06T14:04:51;1.30;99.90
52397;DHT22;38322;53.108;6.308;2024-01-06T14:07:16;1.30;99.90
52397;DHT22;38322;53.108;6.308;2024-01-06T14:09:49;1.20;99.90
52397;DHT22;38322;53.108;6.308;2024-01-06T14:12:14;1.20;99.90
52397;DHT22;38322;53.108;6.308;2024-01-06T14:14:40;1.20;99.90
52397;DHT22;38322;53.108;6.308;2024-01-06T14:17:07;1.20;99.90
52397;DHT22;38322;53.108;6.308;2024-01-06T14:19:33;1.20;99.90
52397;DHT22;38322;53.108;6.308;2024-01-06T14:21:59;1.20;99.90
52397;DHT22;38322;53.108;6.308;2024-01-06T14:24:25;1.10;99.90
52397;DHT22;38322;53.108;6.308;2024-01-06T14:26:53;1.10;99.90
52397;DHT22;38322;53.108;6.308;2024-01-06T14:29:20;1.20;99.90
52397;DHT22;38322;53.108;6.308;2024-01-06T14:31:46;1.10;99.90
52397;DHT22;38322;53.108;6.308;2024-01-06T14:34:13;1.10;99.90
52397;DHT22;38322;53.108;6.308;2024-01-06T14:36:39;1.10;99.90
52397;DHT22;38322;53.108;6.308;2024-01-06T14:39:14;1.10;99.90
52397;DHT22;38322;53.108;6.308;2024-01-06T14:41:40;1.10;99.90
52397;DHT22;38322;53.108;6.308;2024-01-06T14:44:06;1.10;99.90
52397;DHT22;38322;53.108;6.308;2024-01-06T14:46:32;1.10;99.90
52397;DHT22;38322;53.108;6.308;2024-01-06T14:49:01;1.10;99.90
52397;DHT22;38322;53.108;6.308;2024-01-06T14:51:28;1.10;99.90
52397;DHT22;38322;53.108;6.308;2024-01-06T14:53:54;1.10;99.90
52397;DHT22;38322;53.108;6.308;2024-01-06T14:56:23;1.10;99.90
52397;DHT22;38322;53.108;6.308;2024-01-06T14:58:49;1.10;99.90
52397;DHT22;38322;53.108;6.308;2024-01-06T15:01:15;1.10;99.90
52397;DHT22;38322;53.108;6.308;2024-01-06T15:03:41;1.00;99.90
52397;DHT22;38322;53.108;6.308;2024-01-06T15:06:07;1.00;99.90
52397;DHT22;38322;53.108;6.308;2024-01-06T15:08:34;1.00;99.90
52397;DHT22;38322;53.108;6.308;2024-01-06T15:11:00;1.00;99.90
52397;DHT22;38322;53.108;6.308;2024-01-06T15:13:28;1.00;99.90
52397;DHT22;38322;53.108;6.308;2024-01-06T15:15:54;1.00;99.90
52397;DHT22;38322;53.108;6.308;2024-01-06T15:18:21;1.00;99.90
52397;DHT22;38322;53.108;6.308;2024-01-06T15:20:47;1.00;99.90
52397;DHT22;38322;53.108;6.308;2024-01-06T15:23:13;1.00;99.90
52397;DHT22;38322;53.108;6.308;2024-01-06T15:25:39;1.00;99.90
52397;DHT22;38322;53.108;6.308;2024-01-06T15:28:05;1.00;99.90
52397;DHT22;38322;53.108;6.308;2024-01-06T15:30:31;1.00;99.90
52397;DHT22;38322;53.108;6.308;2024-01-06T15:32:57;0.90;99.90
52397;DHT22;38322;53.108;6.308;2024-01-06T15:35:23;0.90;99.90
52397;DHT22;38322;53.108;6.308;2024-01-06T15:37:49;0.90;99.90
52397;DHT22;38322;53.108;6.308;2024-01-06T15:40:14;0.80;99.90
52397;DHT22;38322;53.108;6.308;2024-01-06T15:42:42;0.80;99.90
52397;DHT22;38322;53.108;6.308;2024-01-06T15:45:08;0.70;99.90
52397;DHT22;38322;53.108;6.308;2024-01-06T15:47:37;0.70;99.90
52397;DHT22;38322;53.108;6.308;2024-01-06T15:50:04;0.70;99.90
52397;DHT22;38322;53.108;6.308;2024-01-06T15:52:33;0.70;99.90
52397;DHT22;38322;53.108;6.308;2024-01-06T15:54:59;0.70;99.90
52397;DHT22;38322;53.108;6.308;2024-01-06T15:57:25;0.60;99.90
52397;DHT22;38322;53.108;6.308;2024-01-06T15:59:54;0.60;99.90
52397;DHT22;38322;53.108;6.308;2024-01-06T16:02:20;0.60;99.90
52397;DHT22;38322;53.108;6.308;2024-01-06T16:04:46;0.60;99.90
52397;DHT22;38322;53.108;6.308;2024-01-06T16:07:12;0.50;99.90
52397;DHT22;38322;53.108;6.308;2024-01-06T16:09:38;0.50;99.90
52397;DHT22;38322;53.108;6.308;2024-01-06T16:12:05;0.50;99.90
52397;DHT22;38322;53.108;6.308;2024-01-06T16:14:32;0.50;99.90
52397;DHT22;38322;53.108;6.308;2024-01-06T16:16:58;0.40;99.90
52397;DHT22;38322;53.108;6.308;2024-01-06T16:19:29;0.50;99.90
52397;DHT22;38322;53.108;6.308;2024-01-06T16:21:57;0.40;99.90
52397;DHT22;38322;53.108;6.308;2024-01-06T16:24:26;0.40;99.90
52397;DHT22;38322;53.108;6.308;2024-01-06T16:26:54;0.50;99.90
52397;DHT22;38322;53.108;6.308;2024-01-06T16:29:20;0.50;99.90
52397;DHT22;38322;53.108;6.308;2024-01-06T16:31:46;0.50;99.90
52397;DHT22;38322;53.108;6.308;2024-01-06T16:34:12;0.40;99.90
52397;DHT22;38322;53.108;6.308;2024-01-06T16:36:38;0.40;99.90
52397;DHT22;38322;53.108;6.308;2024-01-06T16:39:04;0.40;99.90
52397;DHT22;38322;53.108;6.308;2024-01-06T16:41:29;0.30;99.90
52397;DHT22;38322;53.108;6.308;2024-01-06T16:43:55;0.30;99.90
52397;DHT22;38322;53.108;6.308;2024-01-06T16:46:21;0.30;99.90
52397;DHT22;38322;53.108;6.308;2024-01-06T16:48:48;0.20;99.90
52397;DHT22;38322;53.108;6.308;2024-01-06T16:51:15;0.20;99.90
52397;DHT22;38322;53.108;6.308;2024-01-06T16:53:41;0.20;99.90
52397;DHT22;38322;53.108;6.308;2024-01-06T16:56:07;0.10;99.90
52397;DHT22;38322;53.108;6.308;2024-01-06T16:58:34;0.10;99.90
52397;DHT22;38322;53.108;6.308;2024-01-06T17:01:00;0.10;99.90
52397;DHT22;38322;53.108;6.308;2024-01-06T17:03:26;0.10;99.90
52397;DHT22;38322;53.108;6.308;2024-01-06T17:05:51;0.10;99.90
52397;DHT22;38322;53.108;6.308;2024-01-06T17:08:17;0.10;99.90
52397;DHT22;38322;53.108;6.308;2024-01-06T17:10:43;0.10;99.90
52397;DHT22;38322;53.108;6.308;2024-01-06T17:13:09;0.10;99.90
52397;DHT22;38322;53.108;6.308;2024-01-06T17:15:35;0.10;99.90
52397;DHT22;38322;53.108;6.308;2024-01-06T17:18:01;0.20;99.90
52397;DHT22;38322;53.108;6.308;2024-01-06T17:20:27;0.20;99.90
52397;DHT22;38322;53.108;6.308;2024-01-06T17:22:52;0.20;99.90
52397;DHT22;38322;53.108;6.308;2024-01-06T17:25:19;0.20;99.90
52397;DHT22;38322;53.108;6.308;2024-01-06T17:27:45;0.20;99.90
52397;DHT22;38322;53.108;6.308;2024-01-06T17:30:11;0.20;99.90
52397;DHT22;38322;53.108;6.308;2024-01-06T17:32:37;0.10;99.90
52397;DHT22;38322;53.108;6.308;2024-01-06T17:35:04;0.70;99.90
52397;DHT22;38322;53.108;6.308;2024-01-06T17:37:30;0.10;99.90
52397;DHT22;38322;53.108;6.308;2024-01-06T17:39:56;0.10;99.90
52397;DHT22;38322;53.108;6.308;2024-01-06T17:42:22;0.10;99.90
52397;DHT22;38322;53.108;6.308;2024-01-06T17:44:50;0.10;99.90
52397;DHT22;38322;53.108;6.308;2024-01-06T17:47:16;0.10;99.90
52397;DHT22;38322;53.108;6.308;2024-01-06T17:49:42;0.10;99.90
52397;DHT22;38322;53.108;6.308;2024-01-06T17:52:09;0.10;99.90
52397;DHT22;38322;53.108;6.308;2024-01-06T17:54:37;0.20;99.90
52397;DHT22;38322;53.108;6.308;2024-01-06T17:57:03;0.20;99.90
52397;DHT22;38322;53.108;6.308;2024-01-06T17:59:30;0.10;99.90
52397;DHT22;38322;53.108;6.308;2024-01-06T18:01:58;0.10;99.90
52397;DHT22;38322;53.108;6.308;2024-01-06T18:04:25;0.10;99.90
52397;DHT22;38322;53.108;6.308;2024-01-06T18:06:51;0.10;99.90
52397;DHT22;38322;53.108;6.308;2024-01-06T18:09:16;0.10;99.90
52397;DHT22;38322;53.108;6.308;2024-01-06T18:11:46;0.00;99.90
52397;DHT22;38322;53.108;6.308;2024-01-06T18:14:14;0.00;99.90
52397;DHT22;38322;53.108;6.308;2024-01-06T18:16:40;0.00;99.90
52397;DHT22;38322;53.108;6.308;2024-01-06T18:19:07;0.00;99.90
52397;DHT22;38322;53.108;6.308;2024-01-06T18:21:33;0.00;99.90
52397;DHT22;38322;53.108;6.308;2024-01-06T18:23:58;0.00;99.90
52397;DHT22;38322;53.108;6.308;2024-01-06T18:26:24;0.00;99.90
52397;DHT22;38322;53.108;6.308;2024-01-06T18:28:51;0.00;99.90
52397;DHT22;38322;53.108;6.308;2024-01-06T18:31:17;0.00;99.90
52397;DHT22;38322;53.108;6.308;2024-01-06T18:33:43;-0.10;99.90
52397;DHT22;38322;53.108;6.308;2024-01-06T18:36:09;-0.10;99.90
52397;DHT22;38322;53.108;6.308;2024-01-06T18:38:35;-0.10;99.90
52397;DHT22;38322;53.108;6.308;2024-01-06T18:41:01;-0.10;99.90
52397;DHT22;38322;53.108;6.308;2024-01-06T18:43:27;-0.10;99.90
52397;DHT22;38322;53.108;6.308;2024-01-06T18:45:54;-0.20;99.90
52397;DHT22;38322;53.108;6.308;2024-01-06T18:48:20;-0.10;99.90
52397;DHT22;38322;53.108;6.308;2024-01-06T18:50:46;-0.20;99.90
52397;DHT22;38322;53.108;6.308;2024-01-06T18:53:13;-0.10;99.90
52397;DHT22;38322;53.108;6.308;2024-01-06T18:55:40;-0.10;99.90
52397;DHT22;38322;53.108;6.308;2024-01-06T18:58:06;-0.20;99.90
52397;DHT22;38322;53.108;6.308;2024-01-06T19:00:32;-0.20;99.90
52397;DHT22;38322;53.108;6.308;2024-01-06T19:02:59;-0.20;99.90
52397;DHT22;38322;53.108;6.308;2024-01-06T19:05:26;-0.20;99.90
52397;DHT22;38322;53.108;6.308;2024-01-06T19:07:56;-0.20;99.90
52397;DHT22;38322;53.108;6.308;2024-01-06T19:10:22;-0.20;99.90
52397;DHT22;38322;53.108;6.308;2024-01-06T19:12:48;-0.20;99.90
52397;DHT22;38322;53.108;6.308;2024-01-06T19:15:14;-0.10;99.90
52397;DHT22;38322;53.108;6.308;2024-01-06T19:17:40;-0.10;99.90
52397;DHT22;38322;53.108;6.308;2024-01-06T19:20:12;-0.20;99.90
52397;DHT22;38322;53.108;6.308;2024-01-06T19:22:38;-0.10;99.90
52397;DHT22;38322;53.108;6.308;2024-01-06T19:25:05;-0.10;99.90
52397;DHT22;38322;53.108;6.308;2024-01-06T19:27:34;-0.10;99.90
52397;DHT22;38322;53.108;6.308;2024-01-06T19:30:00;-0.10;99.90
52397;DHT22;38322;53.108;6.308;2024-01-06T19:32:26;-0.10;99.90
52397;DHT22;38322;53.108;6.308;2024-01-06T19:34:55;-0.20;99.90
52397;DHT22;38322;53.108;6.308;2024-01-06T19:37:21;-0.10;99.90
52397;DHT22;38322;53.108;6.308;2024-01-06T19:39:47;-0.10;99.90
52397;DHT22;38322;53.108;6.308;2024-01-06T19:42:13;-0.10;99.90
52397;DHT22;38322;53.108;6.308;2024-01-06T19:44:38;-0.10;99.90
52397;DHT22;38322;53.108;6.308;2024-01-06T19:47:05;-0.10;99.90
52397;DHT22;38322;53.108;6.308;2024-01-06T19:49:32;-0.10;99.90
52397;DHT22;38322;53.108;6.308;2024-01-06T19:51:58;-0.10;99.90
52397;DHT22;38322;53.108;6.308;2024-01-06T19:54:23;-0.10;99.90
52397;DHT22;38322;53.108;6.308;2024-01-06T19:56:49;-0.10;99.90
52397;DHT22;38322;53.108;6.308;2024-01-06T19:59:15;-0.20;99.90
52397;DHT22;38322;53.108;6.308;2024-01-06T20:01:41;-0.20;99.90
52397;DHT22;38322;53.108;6.308;2024-01-06T20:04:07;-0.10;99.90
52397;DHT22;38322;53.108;6.308;2024-01-06T20:06:33;-0.10;99.90
52397;DHT22;38322;53.108;6.308;2024-01-06T20:08:59;-0.20;99.90
52397;DHT22;38322;53.108;6.308;2024-01-06T20:11:25;-0.20;99.90
52397;DHT22;38322;53.108;6.308;2024-01-06T20:13:50;-0.20;99.90
52397;DHT22;38322;53.108;6.308;2024-01-06T20:16:17;-0.20;99.90
52397;DHT22;38322;53.108;6.308;2024-01-06T20:18:43;-0.20;99.90
52397;DHT22;38322;53.108;6.308;2024-01-06T20:21:10;-0.10;99.90
52397;DHT22;38322;53.108;6.308;2024-01-06T20:23:38;-0.20;99.90
52397;DHT22;38322;53.108;6.308;2024-01-06T20:26:05;-0.20;99.90
52397;DHT22;38322;53.108;6.308;2024-01-06T20:28:31;-0.20;99.90
52397;DHT22;38322;53.108;6.308;2024-01-06T20:30:57;-0.30;99.90
52397;DHT22;38322;53.108;6.308;2024-01-06T20:33:23;-0.30;99.90
52397;DHT22;38322;53.108;6.308;2024-01-06T20:35:48;-0.30;99.90
52397;DHT22;38322;53.108;6.308;2024-01-06T20:38:15;-0.40;99.90
52397;DHT22;38322;53.108;6.308;2024-01-06T20:40:42;-0.40;99.90
52397;DHT22;38322;53.108;6.308;2024-01-06T20:43:08;-0.40;99.90
52397;DHT22;38322;53.108;6.308;2024-01-06T20:45:34;-0.40;99.90
52397;DHT22;38322;53.108;6.308;2024-01-06T20:48:00;-0.50;99.90
52397;DHT22;38322;53.108;6.308;2024-01-06T20:50:26;-0.40;99.90
52397;DHT22;38322;53.108;6.308;2024-01-06T20:52:52;-0.40;99.90
52397;DHT22;38322;53.108;6.308;2024-01-06T20:55:18;-0.40;99.90
52397;DHT22;38322;53.108;6.308;2024-01-06T20:57:44;-0.50;99.90
52397;DHT22;38322;53.108;6.308;2024-01-06T21:00:10;-0.50;99.90
